DON PEDRO RESERVOIR (DNP)

Elevation: 830' · TUOLUMNE R basin · Operator: Turlock Irrigation District


Station comments:

04/19/2016Reservoir elevation data is now being collected from the USGS site.


Provisional data, subject to change.
Query executed Thursday at 5:36:02   clock

Select a sensor type for a plot of data.
Note: Reservoir Flows are daily averages.

Earlier

Date RES ELE    STORAGE    RES CHG    TOC STO    ABV TOC    OUTFLOW    INFLOW    PPT INC   
 FEET   AF   AF   AF   AF   CFS   CFS   INCHES  
04/27/2016 770.09 1360143 286 1699189 -339046 2810 4251 0.00
04/28/2016 770.18 1361097 -1424 1708378 -347282 2662 3143 0.00
04/29/2016 770.40 1363006 -286 1717568 -- 2927 3889 0.00
04/30/2016 770.64 1364917 2386 1726757 -- 2899 3863 0.00
05/01/2016 771.04 1368746 4016 1735946 -- 1590 3521 0.00
05/02/2016 771.46 1373543 2397 1745135 -371592 1425 3843 0.00
05/03/2016 771.87 1377390 2211 1754324 -376934 1522 3461 0.00
05/04/2016 772.27 1381245 2119 1763514 -382268 1673 3617 0.00
05/05/2016 772.81 1386075 3380 1772703 -386628 1108 3543 0.00
05/06/2016 773.17 1389949 2033 1781892 -- 1761 3714 0.00
05/07/2016 773.61 1393831 4169 1791081 -- 1460 3417 0.00
05/08/2016 774.12 1398696 5055 1800270 -401574 1166 3619 0.00
05/09/2016 774.73 1404550 4682 1809459 -- 2222 5173 0.00
05/10/2016 775.63 1413366 9694 1818648 -405282 2150 6595 0.00
05/11/2016 777.18 1429144 15184 1827838 -398694 1024 8978 0.00
05/12/2016 778.72 1444058 14315 1837027 -392969 1509 9028 0.00
05/13/2016 779.84 1455069 10108 1846216 -- 2232 7783 0.00
05/14/2016 780.75 1464148 9176 1855405 -- 2157 6734 0.00
05/15/2016 781.64 1473249 8893 1864594 -392359 1272 5860 0.00
05/16/2016 782.36 1481374 6091 1873784 -392410 1445 5541 0.00
05/17/2016 782.92 1486470 4280 1882973 -397319 1942 4512 0.00
05/18/2016 783.36 1491579 3779 1892162 -400583 2519 5095 0.00
05/19/2016 783.92 1496702 3995 1901351 -404649 1831 4414 0.00
05/20/2016 784.43 1501838 4108 1910541 -- 1831 4414 0.00
05/21/2016 784.86 1506988 4528 1919730 -- 2066 4663 0.00
05/22/2016 785.36 1512151 5056 1928919 -418525 1611 4214 0.00
05/23/2016 785.56 1514220 -2273 1938108 -423888 1203 2246 0.00
05/24/2016 786.26 1521479 -- 1947298 -425818 1243 4903 0.00
05/25/2016 786.41 1522622 1143 -- -- -- -- --
05/26/2016 -- -- -- -- -- -- -- --

Later | Latest

Warning! This data is preliminary and subject to revision.

Show DNP Map | Plot DNP Data | 1 Month DNP Data | Real-Time DNP Data | DNP Info